Time;durP1;ratioP1;P1;durP2;ratioP2;P2;SDS_P1;SDS_P2;PMS_P1;PMS_P2;Temp;Humidity;BMP_temperature;BMP_pressure;BME280_temperature;BME280_humidity;BME280_pressure;Samples;Min_cycle;Max_cycle;Signal;HPM_P1;HPM_P2
2020/12/23 00:01:12;;;;;;;56.97;27.92;;;6.00;99.90;;;;;;5075164;28;20095;-82
2020/12/23 00:03:39;;;;;;;64.38;29.17;;;6.00;99.90;;;;;;5075058;28;20025;-82
2020/12/23 00:06:05;;;;;;;60.10;30.05;;;6.00;99.90;;;;;;5057047;28;20045;-81
2020/12/23 00:08:32;;;;;;;61.58;28.73;;;6.00;99.90;;;;;;5074897;28;20027;-81
2020/12/23 00:10:58;;;;;;;75.20;33.92;;;6.00;99.90;;;;;;5075005;28;20021;-81
2020/12/23 00:13:24;;;;;;;67.15;31.15;;;6.00;99.90;;;;;;5074857;28;20031;-81
2020/12/23 00:15:49;;;;;;;63.78;32.20;;;6.00;99.90;;;;;;5056888;28;20470;-81
2020/12/23 00:18:15;;;;;;;71.53;34.08;;;6.00;99.90;;;;;;5074772;28;20025;-81
2020/12/23 00:20:41;;;;;;;64.45;30.35;;;6.10;99.90;;;;;;5074784;28;20029;-82
2020/12/23 00:23:06;;;;;;;61.25;30.58;;;6.00;99.90;;;;;;5074748;28;20028;-82
2020/12/23 00:25:32;;;;;;;62.90;31.33;;;6.00;99.90;;;;;;5074606;28;20115;-81
2020/12/23 00:27:58;;;;;;;61.50;30.92;;;6.00;99.90;;;;;;5074690;28;20059;-82
2020/12/23 00:30:23;;;;;;;66.75;33.90;;;6.00;99.90;;;;;;5056628;28;20474;-81
2020/12/23 00:32:49;;;;;;;68.20;31.38;;;6.10;99.90;;;;;;5074522;28;20386;-82
2020/12/23 00:35:15;;;;;;;68.85;32.45;;;6.00;99.90;;;;;;5056471;28;20150;-82
2020/12/23 00:37:40;;;;;;;72.78;33.47;;;6.10;99.90;;;;;;5074436;28;20103;-82
2020/12/23 00:40:06;;;;;;;62.28;31.23;;;6.10;99.90;;;;;;5056405;28;20024;-81
2020/12/23 00:42:32;;;;;;;66.80;31.50;;;6.00;99.90;;;;;;5074163;28;20483;-82
2020/12/23 00:44:58;;;;;;;71.53;30.80;;;6.00;99.90;;;;;;5074218;28;20432;-82
2020/12/23 00:47:25;;;;;;;65.05;32.88;;;6.00;99.90;;;;;;5074227;28;20105;-81
2020/12/23 00:49:50;;;;;;;77.50;33.22;;;6.00;99.90;;;;;;5056309;28;20102;-81
2020/12/23 00:52:16;;;;;;;76.10;33.20;;;6.00;99.90;;;;;;5074073;28;20482;-81
2020/12/23 00:54:42;;;;;;;69.40;34.63;;;6.10;99.90;;;;;;5074072;28;20035;-81
2020/12/23 00:57:08;;;;;;;68.50;33.20;;;6.00;99.90;;;;;;5055022;28;20462;-82
2020/12/23 00:59:34;;;;;;;80.60;34.30;;;6.00;99.90;;;;;;5073963;28;20020;-82
2020/12/23 01:02:00;;;;;;;82.68;37.00;;;6.10;99.90;;;;;;5073958;28;20027;-82
2020/12/23 01:04:26;;;;;;;76.90;35.83;;;6.10;99.90;;;;;;5055739;28;20128;-81
2020/12/23 01:06:52;;;;;;;76.22;35.72;;;6.10;99.90;;;;;;5055868;28;20504;-81
2020/12/23 01:09:18;;;;;;;66.55;31.17;;;6.10;99.90;;;;;;5073831;28;20029;-81
2020/12/23 01:11:44;;;;;;;78.18;31.73;;;6.10;99.90;;;;;;5073758;28;20028;-81
2020/12/23 01:14:09;;;;;;;77.78;31.73;;;6.10;99.90;;;;;;5055835;28;20111;-81
2020/12/23 01:16:35;;;;;;;64.60;26.70;;;6.10;99.90;;;;;;5073758;28;20025;-81
2020/12/23 01:19:02;;;;;;;68.10;30.52;;;6.10;99.90;;;;;;5055645;28;20027;-81
2020/12/23 01:21:28;;;;;;;60.00;29.42;;;6.10;99.90;;;;;;5054829;28;20078;-81
2020/12/23 01:23:53;;;;;;;52.65;26.13;;;6.10;99.90;;;;;;5073528;28;20390;-82
2020/12/23 01:26:19;;;;;;;60.13;24.98;;;6.10;99.90;;;;;;5073401;28;20477;-81
2020/12/23 01:28:47;;;;;;;60.70;26.40;;;6.10;99.90;;;;;;5073439;28;20021;-81
2020/12/23 01:31:13;;;;;;;61.83;28.88;;;6.10;99.90;;;;;;5055446;28;20087;-82
2020/12/23 01:33:39;;;;;;;60.80;25.80;;;6.10;99.90;;;;;;5073290;28;20420;-81
2020/12/23 01:36:04;;;;;;;60.42;26.85;;;6.00;99.90;;;;;;5073414;28;20048;-80
2020/12/23 01:38:30;;;;;;;70.25;27.27;;;6.00;99.90;;;;;;5073183;28;20482;-81
2020/12/23 01:40:57;;;;;;;59.95;28.98;;;6.00;99.90;;;;;;5055401;28;20025;-81
2020/12/23 01:43:22;;;;;;;65.15;28.08;;;6.00;99.90;;;;;;5055285;28;20028;-81
2020/12/23 01:45:48;;;;;;;61.88;27.70;;;6.00;99.90;;;;;;5073113;28;20535;-81
2020/12/23 01:48:21;;;;;;;63.30;26.83;;;6.00;99.90;;;;;;5055101;28;20363;-81
2020/12/23 01:50:46;;;;;;;;;;;6.00;99.90;;;;;;5055585;28;20436;-81
2020/12/23 01:53:14;;;;;;;54.17;25.10;;;6.00;99.90;;;;;;5073126;28;19904;-81
2020/12/23 01:55:43;;;;;;;58.47;27.40;;;6.00;99.90;;;;;;5055009;28;20028;-80
2020/12/23 01:58:09;;;;;;;65.20;29.80;;;6.00;99.90;;;;;;5073023;28;20027;-80
2020/12/23 02:00:34;;;;;;;59.53;27.40;;;6.00;99.90;;;;;;5072972;28;20054;-81
2020/12/23 02:03:04;;;;;;;65.18;29.33;;;6.00;99.90;;;;;;5054998;28;20554;-81
2020/12/23 02:05:30;;;;;;;65.82;29.67;;;6.00;99.90;;;;;;5054754;28;20043;-81
2020/12/23 02:07:56;;;;;;;60.30;29.80;;;6.00;99.90;;;;;;5054477;28;20025;-81
2020/12/23 02:10:21;;;;;;;61.90;27.52;;;6.00;99.90;;;;;;5054996;28;20023;-81
2020/12/23 02:12:47;;;;;;;62.38;28.17;;;6.00;99.90;;;;;;5072779;28;20028;-81
2020/12/23 02:15:14;;;;;;;60.10;29.33;;;6.00;99.90;;;;;;5054950;28;20028;-81
2020/12/23 02:17:41;;;;;;;60.90;26.05;;;6.00;99.90;;;;;;5054818;28;20382;-81
2020/12/23 02:20:08;;;;;;;63.97;29.80;;;6.00;99.90;;;;;;5072832;28;20036;-81
2020/12/23 02:22:34;;;;;;;59.63;27.70;;;6.00;99.90;;;;;;5072689;28;20021;-82
2020/12/23 02:25:00;;;;;;;62.20;27.42;;;6.00;99.90;;;;;;5072677;28;20508;-82
2020/12/23 02:27:27;;;;;;;67.55;29.05;;;6.00;99.90;;;;;;5054722;28;20043;-82
2020/12/23 02:29:55;;;;;;;68.80;29.05;;;6.00;99.90;;;;;;5054699;28;20078;-81
2020/12/23 02:32:21;;;;;;;59.83;27.70;;;6.00;99.90;;;;;;5072594;28;20033;-81
2020/12/23 02:34:47;;;;;;;67.32;28.80;;;6.00;99.90;;;;;;5054682;28;20020;-81
2020/12/23 02:37:13;;;;;;;65.78;26.65;;;6.00;99.90;;;;;;5072580;28;20542;-81
2020/12/23 02:39:41;;;;;;;86.78;34.25;;;6.00;99.90;;;;;;5054900;28;20120;-81
2020/12/23 02:42:08;;;;;;;68.03;29.88;;;6.10;99.90;;;;;;5072497;28;20021;-81
2020/12/23 02:44:34;;;;;;;70.90;30.02;;;6.10;99.90;;;;;;5072471;28;20028;-81
2020/12/23 02:47:02;;;;;;;74.95;30.90;;;6.10;99.90;;;;;;5072623;28;20025;-81
2020/12/23 02:49:28;;;;;;;67.60;30.60;;;6.10;99.90;;;;;;5054485;28;20024;-81
2020/12/23 02:51:55;;;;;;;63.58;27.75;;;6.10;99.90;;;;;;5054509;28;20028;-81
2020/12/23 02:54:22;;;;;;;74.75;31.48;;;6.10;99.90;;;;;;5054419;28;20017;-81
2020/12/23 02:56:48;;;;;;;68.47;31.30;;;6.10;99.90;;;;;;5072413;28;20035;-81
2020/12/23 02:59:14;;;;;;;72.72;29.85;;;6.10;99.90;;;;;;5054432;28;20032;-80
2020/12/23 03:01:40;;;;;;;71.22;29.15;;;6.00;99.90;;;;;;5072452;28;20024;-82
2020/12/23 03:04:06;;;;;;;72.47;29.67;;;6.10;99.90;;;;;;5050827;28;20406;-82
2020/12/23 03:06:32;;;;;;;66.18;29.70;;;6.10;99.90;;;;;;5052360;28;20025;-82
2020/12/23 03:08:59;;;;;;;62.38;27.95;;;6.10;99.90;;;;;;5052355;28;20435;-82
2020/12/23 03:11:25;;;;;;;58.70;28.00;;;6.10;99.90;;;;;;5052330;28;20021;-82
2020/12/23 03:13:50;;;;;;;71.97;31.17;;;6.10;99.90;;;;;;5052210;28;20371;-82
2020/12/23 03:16:16;;;;;;;76.45;32.53;;;6.10;99.90;;;;;;5050946;28;20060;-82
2020/12/23 03:18:42;;;;;;;70.88;31.00;;;6.10;99.90;;;;;;5050932;28;20029;-82
2020/12/23 03:21:09;;;;;;;76.18;30.15;;;6.10;99.90;;;;;;5054531;28;20147;-81
2020/12/23 03:23:35;;;;;;;74.30;32.28;;;6.10;99.90;;;;;;5054635;28;20029;-82
2020/12/23 03:26:04;;;;;;;79.65;30.80;;;6.10;99.90;;;;;;5055702;28;20037;-81
2020/12/23 03:28:31;;;;;;;77.95;32.78;;;6.10;99.90;;;;;;5054356;28;20497;-82
2020/12/23 03:30:57;;;;;;;75.40;32.45;;;6.10;99.90;;;;;;5054521;28;20057;-82
2020/12/23 03:33:23;;;;;;;78.78;31.50;;;6.10;99.90;;;;;;5054372;28;20106;-82
2020/12/23 03:35:48;;;;;;;71.72;30.10;;;6.10;99.90;;;;;;5088265;28;20032;-81
2020/12/23 03:38:14;;;;;;;83.80;34.45;;;6.10;99.90;;;;;;5055568;28;20475;-82
2020/12/23 03:40:40;;;;;;;82.68;34.35;;;6.10;99.90;;;;;;5055560;28;20060;-82
2020/12/23 03:43:05;;;;;;;72.13;28.88;;;6.10;99.90;;;;;;5055497;28;20029;-82
2020/12/23 03:45:31;;;;;;;68.18;29.95;;;6.10;99.90;;;;;;5055349;28;20029;-81
2020/12/23 03:47:57;;;;;;;72.53;32.22;;;6.10;99.90;;;;;;5055399;28;20029;-82
2020/12/23 03:50:23;;;;;;;67.20;31.13;;;6.10;99.90;;;;;;5086420;28;20021;-81
2020/12/23 03:52:49;;;;;;;78.60;33.53;;;6.10;99.90;;;;;;5055230;28;20029;-81
2020/12/23 03:55:15;;;;;;;72.00;33.17;;;6.10;99.90;;;;;;5053958;28;20017;-82
2020/12/23 03:57:40;;;;;;;73.03;31.13;;;6.20;99.90;;;;;;5053910;28;20017;-81
2020/12/23 04:00:09;;;;;;;66.15;30.02;;;6.20;99.90;;;;;;5053908;28;20490;-82
2020/12/23 04:02:34;;;;;;;71.72;31.52;;;6.20;99.90;;;;;;5053806;28;20112;-82
2020/12/23 04:05:00;;;;;;;69.57;32.80;;;6.20;99.90;;;;;;5055173;28;20530;-81
2020/12/23 04:07:27;;;;;;;74.00;31.45;;;6.20;99.90;;;;;;5087292;28;20029;-82
2020/12/23 04:09:53;;;;;;;67.60;30.80;;;6.20;99.90;;;;;;5054952;28;20017;-81
2020/12/23 04:12:19;;;;;;;73.90;32.50;;;6.20;99.90;;;;;;5054997;28;20079;-81
2020/12/23 04:14:45;;;;;;;73.43;31.02;;;6.20;99.90;;;;;;5053759;28;20386;-82
2020/12/23 04:17:10;;;;;;;70.20;29.60;;;6.20;99.90;;;;;;5054861;28;20024;-82
2020/12/23 04:19:36;;;;;;;72.85;33.33;;;6.20;99.90;;;;;;5053553;28;20422;-81
2020/12/23 04:22:02;;;;;;;76.68;32.15;;;6.30;99.90;;;;;;5053475;28;20139;-83
2020/12/23 04:24:27;;;;;;;73.88;32.05;;;6.20;99.90;;;;;;5054639;28;20036;-82
2020/12/23 04:26:53;;;;;;;82.70;33.35;;;6.30;99.90;;;;;;5054935;28;20021;-82
2020/12/23 04:29:19;;;;;;;72.85;31.95;;;6.30;99.90;;;;;;5053442;28;20029;-81
2020/12/23 04:31:44;;;;;;;66.95;30.58;;;6.30;99.90;;;;;;5053003;28;20032;-82
2020/12/23 04:34:10;;;;;;;70.72;32.05;;;6.30;99.90;;;;;;5054594;28;20374;-82
2020/12/23 04:36:35;;;;;;;66.78;29.60;;;6.30;99.90;;;;;;5054493;28;20044;-82
2020/12/23 04:39:01;;;;;;;67.53;31.08;;;6.30;99.90;;;;;;5053053;28;20117;-81
2020/12/23 04:41:27;;;;;;;66.43;30.98;;;6.30;99.90;;;;;;5053196;28;20039;-81
2020/12/23 04:43:53;;;;;;;73.70;31.58;;;6.30;99.90;;;;;;5086798;28;20519;-82
2020/12/23 04:46:24;;;;;;;72.43;31.90;;;6.30;99.90;;;;;;5052912;28;20029;-82
2020/12/23 04:48:57;;;;;;;69.60;32.13;;;6.30;99.90;;;;;;5053015;28;20025;-81
2020/12/23 04:51:31;;;;;;;69.07;31.45;;;6.30;99.90;;;;;;5054251;28;20025;-82
2020/12/23 04:53:58;;;;;;;68.53;30.30;;;6.30;99.90;;;;;;5054259;28;20021;-82
2020/12/23 04:56:28;;;;;;;71.35;30.45;;;6.30;99.90;;;;;;5052889;28;20018;-82
2020/12/23 04:58:56;;;;;;;71.05;28.70;;;6.30;99.90;;;;;;5054091;28;20025;-82
2020/12/23 05:01:22;;;;;;;62.38;29.92;;;6.30;99.90;;;;;;5052489;28;20013;-82
2020/12/23 05:03:49;;;;;;;68.22;28.65;;;6.30;99.90;;;;;;5052652;28;20111;-82
2020/12/23 05:06:15;;;;;;;64.78;29.02;;;6.30;99.90;;;;;;5052423;28;20036;-82
2020/12/23 05:08:41;;;;;;;66.15;30.02;;;6.30;99.90;;;;;;5052520;28;20021;-82
2020/12/23 05:11:10;;;;;;;76.95;32.80;;;6.30;99.90;;;;;;5086143;28;20418;-82
2020/12/23 05:13:37;;;;;;;69.18;27.08;;;6.30;99.90;;;;;;5052421;28;20013;-82
2020/12/23 05:16:19;;;;;;;66.13;27.52;;;6.30;99.90;;;;;;5053859;28;20056;-82
2020/12/23 05:18:45;;;;;;;64.50;27.63;;;6.30;99.90;;;;;;5052476;28;20025;-82
2020/12/23 05:21:16;;;;;;;65.03;29.35;;;6.40;99.90;;;;;;5052393;28;20271;-82
2020/12/23 05:23:46;;;;;;;69.78;28.92;;;6.40;99.90;;;;;;5053675;28;20025;-82
2020/12/23 05:26:12;;;;;;;69.22;29.42;;;6.40;99.90;;;;;;5052210;28;20064;-82
2020/12/23 05:28:40;;;;;;;66.10;27.25;;;6.40;99.90;;;;;;5052217;28;20498;-82
2020/12/23 05:31:07;;;;;;;62.58;31.02;;;6.40;99.90;;;;;;5053400;28;20075;-82
2020/12/23 05:33:35;;;;;;;67.18;25.58;;;6.40;99.90;;;;;;5085504;28;20025;-82
2020/12/23 05:36:05;;;;;;;65.25;28.08;;;6.40;99.90;;;;;;5052097;28;20017;-82
2020/12/23 05:38:32;;;;;;;61.35;27.40;;;6.40;99.90;;;;;;5051998;28;20108;-82
2020/12/23 05:41:03;;;;;;;65.22;28.98;;;6.40;99.90;;;;;;5055116;28;20445;-82
2020/12/23 05:43:30;;;;;;;68.82;29.13;;;6.40;99.90;;;;;;5072520;28;20051;-82
2020/12/23 05:46:07;;;;;;;60.47;27.25;;;6.40;99.90;;;;;;5055268;28;20028;-80
2020/12/23 05:48:35;;;;;;;64.13;26.65;;;6.40;99.90;;;;;;5055142;28;20486;-81
2020/12/23 05:51:02;;;;;;;73.85;29.55;;;6.40;99.90;;;;;;5055261;28;20029;-81
2020/12/23 05:53:30;;;;;;;63.78;27.75;;;6.40;99.90;;;;;;5055014;28;20028;-81
2020/12/23 05:55:56;;;;;;;70.53;29.77;;;6.40;99.90;;;;;;5073104;28;20021;-82
2020/12/23 05:58:25;;;;;;;75.03;30.00;;;6.40;99.90;;;;;;5055015;28;20553;-81
2020/12/23 06:00:53;;;;;;;71.43;28.92;;;6.40;99.90;;;;;;5054988;28;20546;-82
2020/12/23 06:03:23;;;;;;;66.93;27.85;;;6.40;99.90;;;;;;5073017;28;20029;-82
2020/12/23 06:05:58;;;;;;;75.20;29.08;;;6.40;99.90;;;;;;5072905;28;20405;-81
2020/12/23 06:08:35;;;;;;;65.68;28.73;;;6.40;99.90;;;;;;5053735;28;20513;-81
2020/12/23 06:11:23;;;;;;;69.45;29.88;;;6.40;99.90;;;;;;5054578;28;20025;-82
2020/12/23 06:14:09;;;;;;;69.18;28.42;;;6.40;99.90;;;;;;5072800;28;20040;-82
2020/12/23 06:16:39;;;;;;;71.88;30.25;;;6.40;99.90;;;;;;5071804;28;20021;-82
2020/12/23 06:19:20;;;;;;;65.15;29.58;;;6.50;99.90;;;;;;5072188;28;20031;-81
2020/12/23 06:21:47;;;;;;;61.97;26.58;;;6.50;99.90;;;;;;5054333;28;20474;-82
2020/12/23 06:24:13;;;;;;;67.60;31.23;;;6.50;99.90;;;;;;5053986;28;20111;-82
2020/12/23 06:27:06;;;;;;;70.60;31.10;;;6.50;99.90;;;;;;5054734;28;20035;-81
2020/12/23 06:29:35;;;;;;;67.97;28.58;;;6.50;99.90;;;;;;5069580;28;20029;-82
2020/12/23 06:32:01;;;;;;;70.15;28.67;;;6.50;99.90;;;;;;5076601;28;20024;-82
2020/12/23 06:34:33;;;;;;;73.47;31.42;;;6.50;99.90;;;;;;5054062;28;20035;-81
2020/12/23 06:36:59;;;;;;;72.82;28.67;;;6.50;99.90;;;;;;5069188;28;20090;-81
2020/12/23 06:39:39;;;;;;;71.05;32.42;;;6.50;99.90;;;;;;5054093;28;20017;-82
2020/12/23 06:42:05;;;;;;;80.20;31.88;;;6.50;99.90;;;;;;5037856;28;20017;-81
2020/12/23 06:44:57;;;;;;;75.10;31.67;;;6.50;99.90;;;;;;5052668;28;20151;-81
2020/12/23 06:47:30;;;;;;;74.40;31.25;;;6.60;99.90;;;;;;5049922;28;20025;-81
2020/12/23 06:50:04;;;;;;;67.00;30.17;;;6.60;99.90;;;;;;5047967;28;20031;-82
2020/12/23 06:52:37;;;;;;;79.03;33.55;;;6.60;99.90;;;;;;5071442;28;20028;-82
2020/12/23 06:55:13;;;;;;;;;;;6.60;99.90;;;;;;5069573;28;20066;-80
2020/12/23 06:57:38;;;;;;;74.28;29.50;;;6.60;99.90;;;;;;5075238;28;19904;-82
2020/12/23 07:00:05;;;;;;;69.88;30.40;;;6.60;99.90;;;;;;5057250;28;20182;-82
2020/12/23 07:02:45;;;;;;;70.20;31.02;;;6.60;99.90;;;;;;5075138;28;20032;-82
2020/12/23 07:05:13;;;;;;;74.20;29.40;;;6.60;99.90;;;;;;5057202;28;20033;-81
2020/12/23 07:07:43;;;;;;;114.10;52.28;;;6.60;99.90;;;;;;5057252;28;20013;-82
2020/12/23 07:10:09;;;;;;;102.10;47.15;;;6.60;99.90;;;;;;5072490;28;20166;-82
2020/12/23 07:12:42;;;;;;;109.60;47.42;;;6.60;99.90;;;;;;5055538;28;20127;-82
2020/12/23 07:15:09;;;;;;;87.45;42.92;;;6.60;99.90;;;;;;5073453;28;20047;-82
2020/12/23 07:17:37;;;;;;;87.38;34.78;;;6.60;99.90;;;;;;5057245;28;20024;-82
2020/12/23 07:20:05;;;;;;;92.75;34.30;;;6.60;99.90;;;;;;5074860;28;20086;-81
2020/12/23 07:22:32;;;;;;;82.45;34.30;;;6.70;99.90;;;;;;5075658;28;20028;-81
2020/12/23 07:24:59;;;;;;;63.83;30.33;;;6.60;99.90;;;;;;5058799;28;20032;-81
2020/12/23 07:27:26;;;;;;;69.10;29.90;;;6.60;99.90;;;;;;5075602;28;20020;-81
2020/12/23 07:29:56;;;;;;;73.53;29.90;;;6.70;99.90;;;;;;5057657;28;20047;-81
2020/12/23 07:32:24;;;;;;;64.75;26.65;;;6.70;99.90;;;;;;5075364;28;20040;-80
2020/12/23 07:34:50;;;;;;;66.38;27.27;;;6.70;99.90;;;;;;5057543;28;20081;-81
2020/12/23 07:37:17;;;;;;;66.70;26.75;;;6.70;99.90;;;;;;5075411;28;20086;-81
2020/12/23 07:39:50;;;;;;;67.57;27.25;;;6.60;99.90;;;;;;5075057;28;20025;-81
2020/12/23 07:42:19;;;;;;;83.68;28.55;;;6.70;99.90;;;;;;5074922;28;20031;-81
2020/12/23 07:44:50;;;;;;;79.35;27.80;;;6.70;99.90;;;;;;5075287;28;20516;-81
2020/12/23 07:47:21;;;;;;;63.22;24.55;;;6.70;99.90;;;;;;5074577;28;20052;-81
2020/12/23 07:49:58;;;;;;;73.43;28.50;;;6.70;99.90;;;;;;5057125;28;20482;-81
2020/12/23 07:52:23;;;;;;;59.20;26.08;;;6.70;99.90;;;;;;5075129;28;20382;-82
2020/12/23 07:54:49;;;;;;;64.47;26.80;;;6.70;99.90;;;;;;5074227;28;20029;-82
2020/12/23 07:57:28;;;;;;;60.60;26.42;;;6.70;99.90;;;;;;5075057;28;20050;-82
2020/12/23 08:00:00;;;;;;;71.00;29.58;;;6.70;99.90;;;;;;5070956;28;20025;-82
2020/12/23 08:02:27;;;;;;;69.27;27.33;;;6.80;99.90;;;;;;5072994;28;20036;-82
2020/12/23 08:04:52;;;;;;;61.45;25.63;;;6.80;99.90;;;;;;5056174;28;20494;-82
2020/12/23 08:07:25;;;;;;;77.53;29.30;;;6.80;99.90;;;;;;5073452;28;20040;-82
2020/12/23 08:09:51;;;;;;;;;;;6.80;99.90;;;;;;5055724;28;20103;-82
2020/12/23 08:12:18;;;;;;;66.30;24.85;;;6.80;99.90;;;;;;5071000;28;19936;-82
2020/12/23 08:14:45;;;;;;;57.95;23.45;;;6.80;99.90;;;;;;5054918;28;20028;-82
2020/12/23 08:17:19;;;;;;;68.30;25.23;;;6.80;99.90;;;;;;5054954;28;20111;-82
2020/12/23 08:19:44;;;;;;;100.70;32.15;;;6.90;99.90;;;;;;5055334;28;20076;-82
2020/12/23 08:22:13;;;;;;;67.47;25.48;;;6.80;99.90;;;;;;5055710;28;20021;-82
2020/12/23 08:24:39;;;;;;;67.50;25.73;;;6.80;99.90;;;;;;5056044;28;20115;-81
2020/12/23 08:27:06;;;;;;;66.03;25.80;;;6.80;99.90;;;;;;5055832;28;20558;-78
2020/12/23 08:29:33;;;;;;;70.55;24.60;;;6.80;99.90;;;;;;5056114;28;20017;-79
2020/12/23 08:32:02;;;;;;;70.72;28.65;;;6.80;99.90;;;;;;5056436;28;20056;-80
2020/12/23 08:34:28;;;;;;;111.85;34.20;;;6.90;99.90;;;;;;5074365;28;20477;-80
2020/12/23 08:36:54;;;;;;;81.38;32.40;;;6.80;99.90;;;;;;5074428;28;20486;-80
2020/12/23 08:39:26;;;;;;;90.55;34.67;;;6.90;99.90;;;;;;5056159;28;20028;-79
2020/12/23 08:41:52;;;;;;;154.43;63.20;;;6.90;99.90;;;;;;5074224;28;20016;-80
2020/12/23 08:44:21;;;;;;;223.80;100.22;;;6.90;99.90;;;;;;5056239;28;20367;-81
2020/12/23 08:46:47;;;;;;;159.63;76.05;;;6.90;99.90;;;;;;5054592;28;20123;-83
2020/12/23 08:49:14;;;;;;;118.70;60.70;;;6.90;99.90;;;;;;5053777;28;20478;-82
2020/12/23 08:51:40;;;;;;;89.30;37.65;;;6.90;99.90;;;;;;5054081;28;20063;-81
2020/12/23 08:54:12;;;;;;;102.93;41.70;;;6.90;99.90;;;;;;5071851;28;20055;-82
2020/12/23 08:56:46;;;;;;;180.18;59.88;;;6.90;99.90;;;;;;5071608;28;20016;-83
2020/12/23 08:59:13;;;;;;;142.15;58.03;;;6.90;99.90;;;;;;5071279;28;20070;-82
2020/12/23 09:01:39;;;;;;;139.93;50.33;;;6.90;99.90;;;;;;5052771;28;20086;-82
2020/12/23 09:04:07;;;;;;;86.53;41.00;;;6.90;99.90;;;;;;5070035;28;20032;-82
2020/12/23 09:06:34;;;;;;;99.53;44.03;;;6.90;99.90;;;;;;5052209;28;20064;-82
2020/12/23 09:09:07;;;;;;;140.32;50.17;;;6.90;99.90;;;;;;5070032;28;20070;-82
2020/12/23 09:11:49;;;;;;;121.57;50.20;;;7.00;99.90;;;;;;5052129;28;20031;-82
2020/12/23 09:14:19;;;;;;;99.72;41.70;;;7.00;99.90;;;;;;5069694;28;20058;-82
2020/12/23 09:16:57;;;;;;;84.65;39.55;;;7.00;99.90;;;;;;5075108;28;20029;-82
2020/12/23 09:19:44;;;;;;;114.90;47.70;;;7.00;99.90;;;;;;5057497;28;20033;-82
2020/12/23 09:22:11;;;;;;;221.48;80.35;;;7.00;99.90;;;;;;5053477;28;20081;-83
2020/12/23 09:24:37;;;;;;;143.10;51.55;;;7.00;99.90;;;;;;5072684;28;20062;-83
2020/12/23 09:27:38;;;;;;;186.32;74.35;;;7.10;99.90;;;;;;5055308;28;20482;-82
2020/12/23 09:30:05;;;;;;;181.35;73.45;;;7.10;99.90;;;;;;4991906;28;20031;-83
2020/12/23 09:32:31;;;;;;;150.80;71.47;;;7.10;99.90;;;;;;5055613;28;20116;-82
2020/12/23 09:35:23;;;;;;;132.40;63.60;;;7.20;99.90;;;;;;5055299;28;20443;-82
2020/12/23 09:38:01;;;;;;;174.67;53.33;;;7.20;99.90;;;;;;5055059;28;20034;-83
2020/12/23 09:40:26;;;;;;;137.23;60.53;;;7.30;99.90;;;;;;5055217;28;20448;-82
2020/12/23 09:42:52;;;;;;;150.98;56.80;;;7.40;99.90;;;;;;5055013;28;20039;-83
2020/12/23 09:45:18;;;;;;;105.32;41.20;;;7.40;99.90;;;;;;5073053;28;20036;-83
2020/12/23 09:47:43;;;;;;;111.90;33.33;;;7.40;99.90;;;;;;5055005;28;20024;-83
2020/12/23 09:50:10;;;;;;;119.05;38.47;;;7.50;99.90;;;;;;5055036;28;20029;-82
2020/12/23 09:52:36;;;;;;;107.68;37.00;;;7.50;99.90;;;;;;5054637;28;20024;-83
2020/12/23 09:55:03;;;;;;;72.38;30.17;;;7.60;99.90;;;;;;5072866;28;20040;-83
2020/12/23 09:57:29;;;;;;;166.52;47.83;;;7.60;99.90;;;;;;5054752;28;20043;-83
2020/12/23 09:59:55;;;;;;;165.55;50.90;;;7.60;99.90;;;;;;5054923;28;20482;-83
2020/12/23 10:02:20;;;;;;;173.38;58.53;;;7.60;99.90;;;;;;5061716;28;20017;-83
2020/12/23 10:04:46;;;;;;;130.02;54.50;;;7.60;99.90;;;;;;5060155;28;20123;-83
2020/12/23 10:07:11;;;;;;;102.80;37.88;;;7.70;99.90;;;;;;5060710;28;20359;-83
2020/12/23 10:09:37;;;;;;;122.05;46.33;;;7.70;99.90;;;;;;5062470;28;20066;-83
2020/12/23 10:12:03;;;;;;;123.47;48.38;;;7.70;99.90;;;;;;5062526;28;20056;-83
2020/12/23 10:14:29;;;;;;;121.60;40.25;;;7.70;99.90;;;;;;5042718;28;20501;-83
2020/12/23 10:16:54;;;;;;;86.43;31.20;;;7.70;99.90;;;;;;5044880;28;20012;-83
2020/12/23 10:19:20;;;;;;;125.63;58.35;;;7.80;99.90;;;;;;5062123;28;20025;-82
2020/12/23 10:21:46;;;;;;;123.95;42.53;;;7.80;99.90;;;;;;5061220;28;20021;-83
2020/12/23 10:24:11;;;;;;;86.57;32.20;;;7.90;99.90;;;;;;5087922;28;20036;-82
2020/12/23 10:26:37;;;;;;;78.75;30.73;;;7.90;99.90;;;;;;5054537;28;20048;-83
2020/12/23 10:29:03;;;;;;;98.75;37.75;;;7.90;99.90;;;;;;5056265;28;20059;-82
2020/12/23 10:31:29;;;;;;;78.40;29.38;;;7.90;99.90;;;;;;5053690;28;20024;-82
2020/12/23 10:33:54;;;;;;;91.78;28.60;;;7.90;99.90;;;;;;5076064;28;20020;-82
2020/12/23 10:36:20;;;;;;;71.80;26.23;;;7.90;99.90;;;;;;5077718;28;20460;-83
2020/12/23 10:38:46;;;;;;;116.05;44.42;;;7.90;99.90;;;;;;5073224;28;20023;-82
2020/12/23 10:41:17;;;;;;;74.53;29.52;;;7.90;99.90;;;;;;5077698;28;20052;-82
2020/12/23 10:43:43;;;;;;;90.72;39.08;;;7.90;99.90;;;;;;5050945;28;20025;-82
2020/12/23 10:46:08;;;;;;;126.55;62.80;;;8.00;99.90;;;;;;5062177;28;20082;-82
2020/12/23 10:48:34;;;;;;;98.55;41.92;;;8.00;99.90;;;;;;5059537;28;20038;-83
2020/12/23 10:51:03;;;;;;;74.85;32.67;;;8.00;99.90;;;;;;5077553;28;20488;-83
2020/12/23 10:53:30;;;;;;;93.50;43.75;;;7.90;99.90;;;;;;5056640;28;20012;-83
2020/12/23 10:55:56;;;;;;;74.43;35.08;;;8.00;99.90;;;;;;5059334;28;20024;-82
2020/12/23 10:58:22;;;;;;;64.97;27.30;;;8.00;99.90;;;;;;5077368;28;20390;-82
2020/12/23 11:00:47;;;;;;;107.38;51.45;;;7.90;99.90;;;;;;5056537;28;20029;-82
2020/12/23 11:03:13;;;;;;;104.03;41.33;;;7.90;99.90;;;;;;5077503;28;20020;-83
2020/12/23 11:05:38;;;;;;;82.05;32.28;;;7.90;99.90;;;;;;5059588;28;20480;-84
2020/12/23 11:08:04;;;;;;;89.75;34.00;;;8.00;99.90;;;;;;5059591;28;20029;-82
2020/12/23 11:10:30;;;;;;;84.80;32.08;;;8.00;99.90;;;;;;5078274;28;20025;-82
2020/12/23 11:12:55;;;;;;;70.13;30.17;;;8.00;99.90;;;;;;5078662;28;20115;-83
2020/12/23 11:15:21;;;;;;;99.03;34.17;;;8.00;99.90;;;;;;5079197;28;20425;-82
2020/12/23 11:17:47;;;;;;;87.72;33.63;;;8.00;99.90;;;;;;5078748;28;20033;-82
2020/12/23 11:20:12;;;;;;;120.38;38.15;;;8.00;99.90;;;;;;5060142;28;20016;-81
2020/12/23 11:22:38;;;;;;;90.80;36.83;;;8.10;99.90;;;;;;5075624;28;20043;-83
2020/12/23 11:25:07;;;;;;;127.15;51.13;;;8.10;99.90;;;;;;5077862;28;20032;-82
2020/12/23 11:27:33;;;;;;;188.23;72.95;;;8.10;99.90;;;;;;5078484;28;20428;-83
2020/12/23 11:29:59;;;;;;;97.88;41.35;;;8.10;99.90;;;;;;5060022;28;20029;-83
2020/12/23 11:32:25;;;;;;;69.10;31.08;;;8.10;99.90;;;;;;5078358;28;20024;-83
2020/12/23 11:34:50;;;;;;;91.72;36.65;;;8.10;99.90;;;;;;5075204;28;20040;-83
2020/12/23 11:37:16;;;;;;;96.65;37.13;;;8.10;99.90;;;;;;5077723;28;20025;-83
2020/12/23 11:39:42;;;;;;;135.82;61.30;;;8.10;99.90;;;;;;5078251;28;20134;-82
2020/12/23 11:42:07;;;;;;;94.90;45.97;;;8.10;99.90;;;;;;5056568;28;20042;-84
2020/12/23 11:44:34;;;;;;;87.28;33.38;;;8.10;99.90;;;;;;5057218;28;20020;-82
2020/12/23 11:46:59;;;;;;;61.60;27.58;;;8.10;99.90;;;;;;5075498;28;20111;-84
2020/12/23 11:49:25;;;;;;;61.63;28.25;;;8.20;99.90;;;;;;5066009;28;20128;-82
2020/12/23 11:51:51;;;;;;;178.73;84.72;;;8.20;99.90;;;;;;5051022;28;20024;-83
2020/12/23 11:54:17;;;;;;;188.98;86.05;;;8.20;99.90;;;;;;5075094;28;20025;-83
2020/12/23 11:56:47;;;;;;;112.40;49.42;;;8.20;99.90;;;;;;5074618;28;20068;-83
2020/12/23 11:59:17;;;;;;;74.20;31.98;;;8.20;99.90;;;;;;5062406;28;20479;-82
2020/12/23 12:01:43;;;;;;;74.82;32.65;;;8.20;99.90;;;;;;5057292;28;20016;-84
2020/12/23 12:04:09;;;;;;;68.70;33.40;;;8.20;99.90;;;;;;5058365;28;20097;-83
2020/12/23 12:06:35;;;;;;;72.65;32.10;;;8.30;99.90;;;;;;5056534;28;20454;-83
2020/12/23 12:09:01;;;;;;;72.32;34.60;;;8.20;99.90;;;;;;5041210;28;20056;-84
2020/12/23 12:11:27;;;;;;;66.45;29.73;;;8.20;99.90;;;;;;5054494;28;20440;-84
2020/12/23 12:13:52;;;;;;;54.53;26.20;;;8.20;99.90;;;;;;5036779;28;20021;-84
2020/12/23 12:16:19;;;;;;;56.38;25.25;;;8.20;99.90;;;;;;5054618;28;20501;-83
2020/12/23 12:18:45;;;;;;;56.05;29.08;;;8.20;99.90;;;;;;5061947;28;20051;-84
2020/12/23 12:21:11;;;;;;;177.98;69.65;;;8.20;99.90;;;;;;5074447;28;20016;-83
2020/12/23 12:23:36;;;;;;;163.40;65.72;;;8.20;99.90;;;;;;5056611;28;20044;-84
2020/12/23 12:26:02;;;;;;;152.98;60.17;;;8.20;99.90;;;;;;5056589;28;20025;-84
2020/12/23 12:28:28;;;;;;;81.88;36.67;;;8.20;99.90;;;;;;5056460;28;20023;-84
2020/12/23 12:30:53;;;;;;;57.25;26.45;;;8.20;99.90;;;;;;5072135;28;20021;-82
2020/12/23 12:33:19;;;;;;;90.20;38.85;;;8.20;99.90;;;;;;5054354;28;20029;-84
2020/12/23 12:35:45;;;;;;;92.75;38.60;;;8.20;99.90;;;;;;5053939;28;20040;-83
2020/12/23 12:38:11;;;;;;;96.30;43.70;;;8.20;99.90;;;;;;5069582;28;20021;-84